Time;durP1;ratioP1;P1;durP2;ratioP2;P2;SDS_P1;SDS_P2;PMS_P1;PMS_P2;Temp;Humidity;BMP_temperature;BMP_pressure;BME280_temperature;BME280_humidity;BME280_pressure;Samples;Min_cycle;Max_cycle;Signal;HPM_P1;HPM_P2
2024/02/25 00:01:14;;;;;;;317.90;78.47;;;1.40;99.90;3.40;96124.00;;;;5025915;28;20987;-84
2024/02/25 00:04:03;;;;;;;327.40;76.57;;;1.40;99.90;2.60;96115.00;;;;5030330;28;20424;-84
2024/02/25 00:06:52;;;;;;;315.40;70.73;;;1.30;99.90;2.60;96100.00;;;;5026508;28;20865;-84
2024/02/25 00:09:41;;;;;;;318.93;73.63;;;1.10;99.90;2.50;96104.00;;;;5023853;28;20472;-85
2024/02/25 00:12:32;;;;;;;321.60;79.83;;;1.00;99.90;1.90;96104.00;;;;5022406;28;20452;-84
2024/02/25 00:15:21;;;;;;;321.43;82.33;;;0.80;99.90;1.80;96114.00;;;;5026873;28;20506;-85
2024/02/25 00:18:10;;;;;;;276.53;72.67;;;0.70;99.90;1.90;96112.00;;;;5028205;28;20436;-83
2024/02/25 00:20:59;;;;;;;318.43;72.80;;;0.60;99.90;1.90;96119.00;;;;5028155;28;20460;-83
2024/02/25 00:23:48;;;;;;;313.53;70.80;;;0.60;99.90;1.80;96115.00;;;;5027921;28;20527;-82
2024/02/25 00:26:37;;;;;;;255.73;68.60;;;0.60;99.90;2.40;96126.00;;;;5028797;28;20639;-83
2024/02/25 00:29:27;;;;;;;301.93;74.03;;;0.60;99.90;2.40;96126.00;;;;5025909;28;20467;-83
2024/02/25 00:32:16;;;;;;;317.17;71.40;;;0.70;99.90;3.00;96128.00;;;;5022653;28;20441;-84
2024/02/25 00:35:06;;;;;;;314.80;69.97;;;0.80;99.90;3.00;96131.00;;;;5028386;28;20429;-83
2024/02/25 00:37:55;;;;;;;314.43;69.90;;;0.90;99.90;2.80;96127.00;;;;5024019;28;20441;-84
2024/02/25 00:40:44;;;;;;;310.80;67.87;;;0.90;99.90;1.70;96132.00;;;;5027819;28;20425;-85
2024/02/25 00:43:38;;;;;;;313.93;70.93;;;0.80;99.90;2.20;96127.00;;;;5029178;28;20432;-82
2024/02/25 00:46:29;;;;;;;320.53;75.47;;;0.80;99.90;2.20;96132.00;;;;5028283;28;20448;-86
2024/02/25 00:49:18;;;;;;;323.83;75.60;;;0.80;99.90;2.40;96129.00;;;;5026871;28;20472;-84
2024/02/25 00:52:07;;;;;;;313.23;68.70;;;0.80;99.90;2.20;96136.00;;;;5026817;28;20463;-83
2024/02/25 00:54:56;;;;;;;316.03;70.17;;;0.80;99.90;2.80;96138.00;;;;5021764;28;20429;-83
2024/02/25 00:57:44;;;;;;;308.17;68.13;;;0.80;99.90;2.50;96141.00;;;;5026602;28;20421;-83
2024/02/25 01:00:33;;;;;;;309.03;69.73;;;0.80;99.90;2.80;96129.00;;;;5027292;28;20443;-83
2024/02/25 01:03:23;;;;;;;316.50;75.83;;;0.90;99.90;3.00;96138.00;;;;5025505;28;20428;-85
2024/02/25 01:06:13;;;;;;;297.60;72.17;;;0.90;99.90;2.80;96131.00;;;;5027629;28;20439;-85
2024/02/25 01:09:02;;;;;;;285.60;73.97;;;0.90;99.90;3.00;96126.00;;;;5024879;28;20498;-86
2024/02/25 01:11:51;;;;;;;281.53;69.13;;;1.00;99.90;1.80;96122.00;;;;5020407;28;20470;-85
2024/02/25 01:14:41;;;;;;;311.03;70.73;;;0.80;99.90;1.20;96129.00;;;;5020772;28;20479;-87
2024/02/25 01:17:30;;;;;;;306.87;76.20;;;0.60;99.90;2.00;96131.00;;;;5028263;28;20471;-83
2024/02/25 01:20:20;;;;;;;300.50;68.97;;;0.50;99.90;1.10;96125.00;;;;5026323;28;20425;-84
2024/02/25 01:23:09;;;;;;;310.00;70.53;;;0.30;99.90;1.40;96128.00;;;;5024838;28;20456;-83
2024/02/25 01:25:58;;;;;;;294.63;68.13;;;0.20;99.90;2.20;96132.00;;;;5029099;28;20417;-85
2024/02/25 01:28:47;;;;;;;282.95;70.05;;;0.30;99.90;2.10;96138.00;;;;5027782;28;20967;-85
2024/02/25 01:31:43;;;;;;;312.17;69.20;;;0.30;99.90;2.20;96148.00;;;;5027252;28;20530;-83
2024/02/25 01:34:32;;;;;;;286.37;75.23;;;0.40;99.90;2.20;96137.00;;;;5026395;28;20766;-85
2024/02/25 01:37:22;;;;;;;256.00;75.80;;;0.40;99.90;2.60;96137.00;;;;5025485;28;20432;-85
2024/02/25 01:40:12;;;;;;;251.83;70.53;;;0.50;99.90;2.70;96118.00;;;;5027555;28;20428;-84
2024/02/25 01:43:09;;;;;;;252.93;71.30;;;0.60;99.90;2.70;96139.00;;;;5024861;28;20452;-85
2024/02/25 01:45:58;;;;;;;305.40;75.00;;;0.70;99.90;2.60;96135.00;;;;5025883;28;20444;-86
2024/02/25 01:48:50;;;;;;;278.10;74.33;;;0.70;99.90;2.30;96128.00;;;;5022380;28;20964;-87
2024/02/25 01:51:39;;;;;;;311.60;75.03;;;0.70;99.90;2.30;96115.00;;;;5019035;28;20459;-84
2024/02/25 01:54:30;;;;;;;323.37;86.87;;;0.60;99.90;1.70;96119.00;;;;5024338;28;20428;-87
2024/02/25 01:57:19;;;;;;;254.50;76.73;;;0.50;99.90;1.40;96113.00;;;;5024663;28;20424;-86
2024/02/25 02:00:10;;;;;;;244.50;70.93;;;0.30;99.90;1.40;96113.00;;;;5028211;28;20427;-84
2024/02/25 02:02:59;;;;;;;231.87;68.83;;;0.20;99.90;1.60;96116.00;;;;5028246;28;20451;-86
2024/02/25 02:05:48;;;;;;;239.47;70.77;;;0.10;99.90;1.70;96116.00;;;;5023768;28;20444;-85
2024/02/25 02:08:38;;;;;;;229.97;71.20;;;0.00;99.90;2.00;96111.00;;;;5030397;28;20455;-87
2024/02/25 02:11:28;;;;;;;234.47;70.17;;;0.10;99.90;2.50;96115.00;;;;5028211;28;20468;-85
2024/02/25 02:14:17;;;;;;;233.03;69.10;;;0.20;99.90;2.20;96109.00;;;;5030562;28;20431;-85
2024/02/25 02:17:06;;;;;;;228.07;67.60;;;0.30;99.90;2.20;96114.00;;;;5030507;28;20439;-84
2024/02/25 02:19:55;;;;;;;228.10;69.47;;;0.30;99.90;2.20;96116.00;;;;5022234;28;20429;-83
2024/02/25 02:22:45;;;;;;;231.90;70.67;;;0.40;99.90;2.50;96109.00;;;;5028696;28;20452;-85
2024/02/25 02:25:34;;;;;;;228.07;69.77;;;0.40;99.90;2.20;96098.00;;;;5024902;28;21841;-84
2024/02/25 02:28:23;;;;;;;236.50;74.57;;;0.40;99.90;2.00;96104.00;;;;5028375;28;20952;-86
2024/02/25 02:31:12;;;;;;;231.33;70.60;;;0.40;99.90;1.70;96106.00;;;;5030678;28;20864;-85
2024/02/25 02:34:02;;;;;;;233.07;71.47;;;0.30;99.90;1.10;96110.00;;;;5027626;28;20512;-85
2024/02/25 02:36:51;;;;;;;231.37;70.53;;;0.10;99.90;1.70;96110.00;;;;5030872;28;20798;-87
2024/02/25 02:39:41;;;;;;;243.77;73.10;;;0.00;99.90;1.80;96101.00;;;;5028534;28;20972;-86
2024/02/25 02:42:30;;;;;;;249.43;72.60;;;0.10;99.90;0.80;96096.00;;;;5029113;28;20960;-85
2024/02/25 02:45:19;;;;;;;248.27;74.20;;;-0.10;99.90;1.00;96085.00;;;;5028007;28;20424;-85
2024/02/25 02:48:09;;;;;;;261.63;66.17;;;-0.10;99.90;0.60;96097.00;;;;5031120;28;20447;-89
2024/02/25 02:50:58;;;;;;;303.17;68.20;;;-0.20;99.90;1.00;96099.00;;;;5030321;28;20463;-84
2024/02/25 02:53:46;;;;;;;;;;;-0.20;99.90;1.50;96090.00;;;;5031445;28;20455;-84
2024/02/25 02:56:37;;;;;;;267.17;67.00;;;-0.10;99.90;1.30;96096.00;;;;5025405;28;20358;-86
2024/02/25 02:59:26;;;;;;;272.57;72.13;;;-0.10;99.90;0.90;96106.00;;;;5029244;28;20436;-87
2024/02/25 03:02:15;;;;;;;256.77;69.63;;;-0.20;99.90;1.00;96102.00;;;;5024625;28;20459;-84
2024/02/25 03:05:04;;;;;;;246.90;68.53;;;-0.20;99.90;1.20;96115.00;;;;5030139;28;20201;-87
2024/02/25 03:07:53;;;;;;;264.70;68.83;;;-0.20;99.90;1.70;96111.00;;;;5023686;28;20477;-84
2024/02/25 03:10:42;;;;;;;299.17;72.03;;;-0.20;99.90;1.80;96113.00;;;;5029620;28;20460;-84
2024/02/25 03:13:33;;;;;;;284.07;77.83;;;-0.10;99.90;1.90;96106.00;;;;5028404;28;20428;-84
2024/02/25 03:16:21;;;;;;;302.17;72.23;;;0.00;99.90;1.90;96113.00;;;;5025921;28;20425;-85
2024/02/25 03:19:10;;;;;;;319.60;75.50;;;0.00;99.90;2.20;96116.00;;;;5029319;28;20425;-84
2024/02/25 03:21:59;;;;;;;308.53;69.07;;;0.10;99.90;2.30;96124.00;;;;5029620;28;20972;-84
2024/02/25 03:24:48;;;;;;;268.80;70.77;;;0.20;99.90;2.00;96122.00;;;;5029493;28;20456;-83
2024/02/25 03:27:37;;;;;;;269.30;79.47;;;0.20;99.90;1.20;96121.00;;;;5029962;28;20432;-86
2024/02/25 03:30:28;;;;;;;266.67;74.93;;;0.10;99.90;1.60;96124.00;;;;5029195;28;20841;-88
2024/02/25 03:33:16;;;;;;;252.27;69.47;;;0.10;99.90;1.60;96119.00;;;;5029212;28;20459;-85
2024/02/25 03:36:06;;;;;;;269.87;70.20;;;0.10;99.90;1.40;96128.00;;;;5028617;28;20965;-85
2024/02/25 03:38:55;;;;;;;311.57;79.90;;;0.10;99.90;0.90;96124.00;;;;5027695;28;20451;-85
2024/02/25 03:41:44;;;;;;;305.50;71.17;;;-0.10;99.90;1.20;96126.00;;;;5028858;28;20444;-84
2024/02/25 03:44:33;;;;;;;315.27;76.23;;;-0.20;99.90;1.10;96123.00;;;;5029390;28;20432;-86
2024/02/25 03:47:24;;;;;;;309.50;71.23;;;-0.30;99.90;0.90;96118.00;;;;5026317;28;20428;-83
2024/02/25 03:50:14;;;;;;;268.67;74.77;;;-0.30;99.90;1.70;96130.00;;;;5028464;28;20483;-85
2024/02/25 03:53:03;;;;;;;283.00;69.00;;;-0.30;99.90;2.20;96125.00;;;;5029833;28;20832;-87
2024/02/25 03:55:52;;;;;;;291.80;73.60;;;-0.20;99.90;2.20;96138.00;;;;5026650;28;20952;-85
2024/02/25 03:58:40;;;;;;;233.03;68.43;;;0.00;99.90;2.20;96139.00;;;;5028232;28;20429;-84
2024/02/25 04:01:29;;;;;;;320.27;84.73;;;0.10;99.90;2.30;96139.00;;;;5025004;28;20802;-85
2024/02/25 04:04:20;;;;;;;281.60;77.03;;;0.20;99.90;2.50;96136.00;;;;5028858;28;20448;-85
2024/02/25 04:07:09;;;;;;;284.50;92.33;;;0.30;99.90;2.00;96138.00;;;;5044413;22;20443;-71
2024/02/25 04:09:57;;;;;;;254.67;72.30;;;0.30;99.90;1.10;96124.00;;;;5035837;28;20470;-71
2024/02/25 04:12:46;;;;;;;270.70;70.17;;;0.10;99.90;1.00;96124.00;;;;5026674;28;20807;-73
2024/02/25 04:15:35;;;;;;;306.40;78.57;;;-0.10;99.90;1.00;96122.00;;;;5024758;28;20436;-73
2024/02/25 04:18:24;;;;;;;312.87;82.23;;;-0.20;99.90;0.70;96119.00;;;;5024496;28;20433;-73
2024/02/25 04:21:14;;;;;;;298.97;87.93;;;-0.40;99.90;1.30;96127.00;;;;5021671;28;20441;-73
2024/02/25 04:24:03;;;;;;;295.47;75.30;;;-0.40;99.90;1.60;96128.00;;;;5031483;28;20435;-73
2024/02/25 04:26:52;;;;;;;311.23;74.00;;;-0.40;99.90;1.60;96121.00;;;;5027016;28;20922;-72
2024/02/25 04:29:43;;;;;;;320.10;78.40;;;-0.40;99.90;1.20;96119.00;;;;5020733;28;20455;-73
2024/02/25 04:32:32;;;;;;;314.33;77.03;;;-0.30;99.90;1.60;96121.00;;;;5026674;28;20464;-72
2024/02/25 04:35:23;;;;;;;283.90;84.27;;;-0.20;99.90;1.50;96124.00;;;;5018893;28;20509;-72
2024/02/25 04:38:13;;;;;;;240.10;68.40;;;-0.20;99.90;1.60;96120.00;;;;5023905;28;20546;-71
2024/02/25 04:41:03;;;;;;;258.27;69.47;;;-0.20;99.90;1.60;96133.00;;;;5024655;28;20449;-71
2024/02/25 04:43:52;;;;;;;303.90;69.63;;;-0.10;99.90;2.10;96131.00;;;;5026014;28;20420;-71
2024/02/25 04:46:40;;;;;;;302.03;68.23;;;0.00;99.90;2.30;96125.00;;;;5026563;28;20432;-73
2024/02/25 04:49:29;;;;;;;308.90;69.77;;;0.10;99.90;2.20;96129.00;;;;5024554;28;20452;-73
2024/02/25 04:52:20;;;;;;;311.80;72.43;;;0.20;99.90;1.60;96124.00;;;;5025805;28;20479;-72
2024/02/25 04:55:11;;;;;;;284.50;73.80;;;0.10;99.90;1.40;96126.00;;;;5022522;28;20426;-73
2024/02/25 04:58:00;;;;;;;292.83;84.87;;;0.00;99.90;1.00;96129.00;;;;5024915;28;20424;-71
2024/02/25 05:00:49;;;;;;;289.63;83.80;;;-0.10;99.90;0.80;96118.00;;;;5024069;28;20440;-73
2024/02/25 05:03:37;;;;;;;236.63;67.07;;;-0.30;99.90;0.60;96122.00;;;;5025699;28;20435;-73
2024/02/25 05:06:26;;;;;;;283.80;75.30;;;-0.10;99.90;0.50;96123.00;;;;5020882;28;20427;-70
2024/02/25 05:09:15;;;;;;;310.97;72.27;;;-0.50;99.90;0.80;96120.00;;;;5020862;28;21215;-73
2024/02/25 05:12:06;;;;;;;313.13;72.20;;;-0.50;99.90;1.40;96128.00;;;;5034512;22;20492;-69
2024/02/25 05:14:55;;;;;;;202.03;64.17;;;-0.50;99.90;1.80;96135.00;;;;5025659;28;20428;-68
2024/02/25 05:17:45;;;;;;;208.57;65.67;;;-0.40;99.90;1.90;96122.00;;;;5017158;28;20452;-70
2024/02/25 05:20:34;;;;;;;229.43;74.47;;;-0.20;99.90;1.10;96118.00;;;;5024358;28;20440;-69
2024/02/25 05:23:23;;;;;;;216.63;67.93;;;-0.20;99.90;1.90;96113.00;;;;5005568;28;20426;-68
2024/02/25 05:26:12;;;;;;;225.50;69.03;;;-0.20;99.90;1.90;96123.00;;;;5006934;28;20425;-70
2024/02/25 05:29:03;;;;;;;223.17;70.13;;;-0.10;99.90;1.40;96113.00;;;;5000850;28;20974;-69
2024/02/25 05:31:52;;;;;;;215.80;68.33;;;-0.10;99.90;1.30;96124.00;;;;5006747;28;20997;-69
2024/02/25 05:34:41;;;;;;;218.27;67.90;;;-0.10;99.90;1.60;96128.00;;;;5005460;28;20421;-70
2024/02/25 05:37:30;;;;;;;228.47;73.77;;;-0.20;99.90;1.40;96130.00;;;;5007064;28;20433;-70
2024/02/25 05:40:18;;;;;;;217.53;67.93;;;-0.20;99.90;1.80;96123.00;;;;5008924;28;20452;-69
2024/02/25 05:43:07;;;;;;;222.53;69.17;;;-0.20;99.90;2.00;96113.00;;;;5009221;28;20978;-69
2024/02/25 05:45:58;;;;;;;221.37;67.83;;;-0.20;99.90;1.70;96110.00;;;;5009994;28;20810;-70
2024/02/25 05:48:47;;;;;;;228.63;69.63;;;-0.10;99.90;1.20;96124.00;;;;5011071;28;20956;-69
2024/02/25 05:51:36;;;;;;;234.43;73.63;;;-0.20;99.90;1.70;96116.00;;;;5008392;28;20966;-70
2024/02/25 05:54:25;;;;;;;245.90;77.27;;;-0.20;99.90;2.00;96108.00;;;;5007952;28;20429;-69
2024/02/25 05:57:14;;;;;;;228.83;67.87;;;-0.10;99.90;1.70;96101.00;;;;5009854;28;20425;-69
2024/02/25 06:00:03;;;;;;;230.20;70.47;;;-0.10;99.90;1.10;96106.00;;;;5005165;28;20432;-68
2024/02/25 06:02:53;;;;;;;249.90;70.37;;;-0.20;99.90;1.10;96104.00;;;;5009455;28;20817;-69
2024/02/25 06:05:42;;;;;;;311.77;75.97;;;-0.20;99.90;1.40;96107.00;;;;5009731;28;20436;-69
2024/02/25 06:08:31;;;;;;;330.10;84.70;;;-0.20;99.90;1.70;96103.00;;;;5008713;28;20515;-69
2024/02/25 06:11:20;;;;;;;259.83;76.33;;;-0.20;99.90;2.10;96104.00;;;;5005343;28;20480;-70
2024/02/25 06:14:09;;;;;;;220.07;68.47;;;-0.10;99.90;2.20;96100.00;;;;5009281;28;20444;-69
2024/02/25 06:16:58;;;;;;;226.20;69.23;;;0.00;99.90;2.20;96107.00;;;;5009349;28;20437;-70
2024/02/25 06:19:48;;;;;;;256.43;81.73;;;0.10;99.90;1.60;96105.00;;;;5009224;28;20429;-69
2024/02/25 06:22:38;;;;;;;245.47;69.87;;;0.00;99.90;1.50;96098.00;;;;5009549;28;20966;-69
2024/02/25 06:25:27;;;;;;;325.23;92.40;;;0.00;99.90;1.50;96096.00;;;;5007034;28;20799;-69
2024/02/25 06:28:15;;;;;;;314.63;78.53;;;-0.10;99.90;1.70;96107.00;;;;5009583;28;20429;-69
2024/02/25 06:31:05;;;;;;;314.97;75.10;;;0.00;99.90;2.20;96116.00;;;;5007314;28;20441;-69
2024/02/25 06:33:54;;;;;;;266.47;74.03;;;0.00;99.90;1.40;96117.00;;;;5010744;28;20445;-69
2024/02/25 06:36:44;;;;;;;219.40;70.67;;;0.00;99.90;0.40;96117.00;;;;5009276;28;20446;-69
2024/02/25 06:39:33;;;;;;;223.47;79.73;;;-0.30;99.90;0.90;96113.00;;;;5006018;28;20816;-69
2024/02/25 06:42:22;;;;;;;193.00;68.20;;;-0.40;99.90;1.60;96115.00;;;;5006383;28;20493;-70
2024/02/25 06:45:11;;;;;;;299.60;134.07;;;-0.40;99.90;2.00;96115.00;;;;4989357;28;21097;-69
2024/02/25 06:48:00;;;;;;;353.07;175.90;;;-0.30;99.90;1.60;96105.00;;;;4944784;28;20429;-69
2024/02/25 06:50:49;;;;;;;395.57;193.87;;;-0.20;99.90;1.40;96097.00;;;;4930835;28;20460;-68
2024/02/25 06:53:39;;;;;;;360.77;173.30;;;0.20;99.90;1.80;96111.00;;;;4932561;28;22023;-69
2024/02/25 06:56:31;;;;;;;380.37;179.83;;;-0.10;99.90;1.80;96119.00;;;;4940206;28;20441;-70
2024/02/25 06:59:20;;;;;;;372.60;171.43;;;0.00;99.90;1.90;96120.00;;;;4937064;28;20575;-69
2024/02/25 07:02:09;;;;;;;405.37;184.63;;;-1.40;99.90;1.90;96125.00;;;;4936537;28;20465;-70
2024/02/25 07:04:58;;;;;;;382.63;177.63;;;1.10;99.90;1.60;96112.00;;;;4939640;28;20475;-70
2024/02/25 07:07:49;;;;;;;379.67;169.67;;;0.10;99.90;1.20;96103.00;;;;4939641;28;20449;-69
2024/02/25 07:10:39;;;;;;;393.67;178.00;;;0.10;99.90;1.50;96114.00;;;;4941503;28;20456;-69
2024/02/25 07:13:28;;;;;;;435.07;198.80;;;-0.10;99.90;1.20;96126.00;;;;4936381;28;20526;-69
2024/02/25 07:16:17;;;;;;;365.87;167.87;;;0.00;99.90;1.40;96119.00;;;;4932285;28;21152;-68
2024/02/25 07:19:06;;;;;;;388.03;184.77;;;0.00;99.90;1.30;96133.00;;;;4934362;28;20440;-66
2024/02/25 07:21:55;;;;;;;227.73;72.27;;;0.00;99.90;1.10;96130.00;;;;4978288;28;20483;-69
2024/02/25 07:24:44;;;;;;;327.77;150.30;;;0.00;99.90;1.60;96140.00;;;;4938415;28;20464;-70
2024/02/25 07:27:34;;;;;;;397.63;194.63;;;0.00;99.90;1.80;96135.00;;;;4932786;28;20449;-69
2024/02/25 07:30:24;;;;;;;339.50;155.23;;;0.10;99.90;2.00;96127.00;;;;4924982;28;20494;-69
2024/02/25 07:33:13;;;;;;;338.10;147.07;;;0.30;99.90;2.00;96125.00;;;;4935329;28;20492;-69
2024/02/25 07:36:02;;;;;;;285.43;109.43;;;0.40;99.90;2.40;96118.00;;;;4928589;28;21027;-68
2024/02/25 07:38:51;;;;;;;397.57;192.33;;;0.60;99.90;2.40;96104.00;;;;4934322;28;20544;-69
2024/02/25 07:41:40;;;;;;;315.83;129.17;;;1.30;99.90;2.10;96098.00;;;;4930907;28;22361;-68
2024/02/25 07:44:31;;;;;;;413.87;208.70;;;0.70;99.90;2.40;96092.00;;;;4938508;28;20557;-68
2024/02/25 07:47:20;;;;;;;280.23;101.13;;;0.70;99.90;2.60;96094.00;;;;4942367;28;20433;-68
2024/02/25 07:50:10;;;;;;;371.43;175.03;;;0.90;99.90;2.50;96098.00;;;;4938779;28;20958;-69
2024/02/25 07:52:59;;;;;;;345.23;130.13;;;0.90;99.90;2.30;96088.00;;;;4945184;28;20721;-68
2024/02/25 07:55:49;;;;;;;382.57;169.07;;;1.10;99.90;2.10;96089.00;;;;4947685;28;20973;-68
2024/02/25 07:58:38;;;;;;;440.37;200.27;;;1.00;99.90;2.60;96092.00;;;;4946510;28;20463;-68
2024/02/25 08:01:30;;;;;;;389.67;167.63;;;1.00;99.90;2.20;96098.00;;;;4951284;28;20445;-69
2024/02/25 08:04:19;;;;;;;344.13;117.83;;;1.10;99.90;2.60;96088.00;;;;4944700;28;21561;-70
2024/02/25 08:07:08;;;;;;;466.17;200.97;;;1.10;99.90;3.30;96087.00;;;;4946909;28;20425;-69
2024/02/25 08:09:57;;;;;;;457.47;179.03;;;1.30;99.90;3.00;96091.00;;;;4943590;28;20448;-69
2024/02/25 08:12:47;;;;;;;455.20;179.43;;;1.40;99.90;2.70;96092.00;;;;4939361;28;20476;-69
2024/02/25 08:15:35;;;;;;;430.53;176.50;;;1.40;99.90;2.50;96079.00;;;;4940812;28;21059;-69
2024/02/25 08:18:26;;;;;;;415.37;165.43;;;1.40;99.90;2.90;96095.00;;;;4934280;28;21185;-69
2024/02/25 08:21:15;;;;;;;451.30;196.30;;;1.40;99.90;3.00;96104.00;;;;4936822;28;20464;-69
2024/02/25 08:24:04;;;;;;;296.73;78.10;;;1.60;99.90;3.40;96093.00;;;;4991765;28;20455;-69
2024/02/25 08:26:53;;;;;;;439.90;179.17;;;1.70;99.90;3.90;96111.00;;;;4935900;28;22443;-70
2024/02/25 08:29:45;;;;;;;474.50;204.47;;;1.90;99.90;4.10;96106.00;;;;4939587;28;21680;-69
2024/02/25 08:32:35;;;;;;;454.37;198.90;;;1.90;99.90;4.30;96113.00;;;;4937380;28;20494;-70
2024/02/25 08:35:25;;;;;;;399.40;126.03;;;2.20;99.90;4.20;96102.00;;;;4943026;28;20607;-69
2024/02/25 08:38:14;;;;;;;422.37;182.40;;;2.30;99.90;3.80;96098.00;;;;4943516;28;21473;-69
2024/02/25 08:41:03;;;;;;;387.70;178.90;;;2.30;99.90;4.40;96106.00;;;;4940069;28;21388;-70
2024/02/25 08:43:52;;;;;;;363.53;157.17;;;2.30;99.90;4.00;96090.00;;;;4941699;28;20442;-69
2024/02/25 08:46:41;;;;;;;377.47;180.03;;;2.40;99.90;4.00;96084.00;;;;4942681;28;20425;-69
2024/02/25 08:49:30;;;;;;;360.73;170.60;;;2.40;99.90;4.40;96098.00;;;;4940340;28;20528;-69
2024/02/25 08:52:20;;;;;;;240.17;83.77;;;1.90;99.90;4.40;96096.00;;;;5001094;28;22749;-69
2024/02/25 08:55:10;;;;;;;221.63;80.73;;;2.60;99.90;4.60;96108.00;;;;4994341;28;20441;-69
2024/02/25 08:57:58;;;;;;;286.20;127.03;;;2.70;99.90;5.00;96092.00;;;;4997499;28;20441;-68
2024/02/25 09:00:47;;;;;;;268.73;111.57;;;2.90;99.90;5.10;96096.00;;;;4954043;28;20440;-68
2024/02/25 09:03:36;;;;;;;217.37;76.23;;;3.10;99.90;5.80;96098.00;;;;4968843;28;20425;-69
2024/02/25 09:06:26;;;;;;;234.63;86.17;;;3.30;99.90;6.10;96093.00;;;;5001670;28;20445;-70
2024/02/25 09:09:16;;;;;;;222.57;81.70;;;3.60;99.90;6.00;96095.00;;;;4995265;28;20437;-69
2024/02/25 09:12:06;;;;;;;217.27;78.37;;;3.90;99.90;6.90;96099.00;;;;5000830;28;20480;-69
2024/02/25 09:14:56;;;;;;;224.73;83.13;;;3.10;99.90;6.40;96102.00;;;;5000876;28;20472;-69
2024/02/25 09:17:45;;;;;;;225.20;84.90;;;4.40;99.90;6.60;96105.00;;;;5003809;28;20456;-69
2024/02/25 09:20:34;;;;;;;235.37;90.70;;;4.40;99.90;7.00;96100.00;;;;4998956;28;20198;-69
2024/02/25 09:23:23;;;;;;;291.67;135.57;;;4.60;99.90;7.00;96089.00;;;;4998337;28;20210;-69
2024/02/25 09:26:14;;;;;;;220.33;82.73;;;4.80;99.90;8.00;96097.00;;;;5002049;28;20221;-70
2024/02/25 09:29:07;;;;;;;364.93;183.83;;;5.10;99.90;8.80;96093.00;;;;4976084;28;20213;-69
2024/02/25 09:31:56;;;;;;;283.63;116.67;;;5.50;99.90;9.10;96089.00;;;;4995312;28;20225;-71
2024/02/25 09:34:45;;;;;;;247.37;94.63;;;5.80;99.90;9.20;96078.00;;;;5000116;28;20245;-69
2024/02/25 09:37:34;;;;;;;410.43;214.80;;;6.10;99.90;9.20;96078.00;;;;4944048;28;20292;-69
2024/02/25 09:40:23;;;;;;;374.10;185.20;;;6.30;99.90;9.80;96087.00;;;;4936792;28;20809;-69
2024/02/25 09:43:14;;;;;;;266.10;104.90;;;6.60;99.90;9.90;96095.00;;;;5000363;28;20221;-69
2024/02/25 09:46:04;;;;;;;249.13;98.13;;;6.80;99.90;9.60;96083.00;;;;5001687;28;20206;-70
2024/02/25 09:48:54;;;;;;;246.23;94.20;;;6.90;99.90;9.50;96080.00;;;;5002555;28;20212;-70
2024/02/25 09:51:43;;;;;;;239.43;96.43;;;6.90;99.90;9.50;96079.00;;;;4998574;28;20222;-69
2024/02/25 09:54:32;;;;;;;269.13;114.37;;;6.90;99.90;9.90;96073.00;;;;5000504;28;20222;-69
2024/02/25 09:57:21;;;;;;;251.67;102.90;;;7.00;99.90;10.30;96075.00;;;;5000078;28;20213;-69
2024/02/25 10:00:12;;;;;;;263.23;105.80;;;7.20;99.90;10.40;96065.00;;;;4974848;28;20241;-69
2024/02/25 10:03:01;;;;;;;253.03;101.90;;;7.40;99.90;10.70;96075.00;;;;4998659;28;20617;-70
2024/02/25 10:05:49;;;;;;;239.10;100.57;;;7.50;99.90;10.90;96065.00;;;;5001170;28;20684;-69
2024/02/25 10:08:49;;;;;;;271.43;120.37;;;7.80;99.90;11.10;96065.00;;;;4997277;28;20217;-69
2024/02/25 10:11:39;;;;;;;255.00;113.50;;;8.00;99.90;11.50;96065.00;;;;4995471;28;20245;-70
2024/02/25 10:14:29;;;;;;;276.53;121.20;;;8.20;99.90;11.60;96079.00;;;;5003744;28;20229;-70
2024/02/25 10:17:23;;;;;;;241.97;101.97;;;8.40;99.90;11.90;96068.00;;;;5009215;28;20201;-70
2024/02/25 10:20:13;;;;;;;250.93;104.53;;;8.60;99.90;12.30;96062.00;;;;5003697;28;20198;-69
2024/02/25 10:23:08;;;;;;;253.50;106.60;;;8.80;99.90;12.40;96062.00;;;;5004914;28;20222;-70
2024/02/25 10:26:13;;;;;;;366.33;175.53;;;9.10;99.90;12.80;96052.00;;;;4985501;28;21230;-70
2024/02/25 10:29:05;;;;;;;400.20;209.80;;;9.30;99.90;12.60;96046.00;;;;4924561;28;20269;-70
2024/02/25 10:32:00;;;;;;;400.83;203.53;;;9.50;99.90;13.10;96054.00;;;;4939635;28;20313;-71
2024/02/25 10:34:51;;;;;;;446.60;233.87;;;9.70;99.90;12.90;96048.00;;;;4944140;28;20252;-71
2024/02/25 10:37:40;;;;;;;358.20;156.07;;;9.90;99.90;13.20;96048.00;;;;4937070;28;20377;-68
2024/02/25 10:40:29;;;;;;;458.17;239.37;;;10.00;99.90;13.20;96042.00;;;;4937655;28;20272;-69
2024/02/25 10:43:20;;;;;;;304.77;121.37;;;10.10;99.90;13.20;96036.00;;;;4997984;28;20651;-69
2024/02/25 10:46:23;;;;;;;307.73;121.17;;;10.30;99.90;14.10;96031.00;;;;5008051;28;20206;-69
2024/02/25 10:49:15;;;;;;;315.97;125.77;;;10.50;99.90;14.30;96029.00;;;;5007650;28;20301;-70
2024/02/25 10:52:06;;;;;;;329.43;126.43;;;10.80;99.90;14.60;96027.00;;;;5008806;28;20229;-69
2024/02/25 10:54:58;;;;;;;331.47;129.10;;;11.10;99.90;14.30;96036.00;;;;5009509;28;20773;-69
2024/02/25 10:57:47;;;;;;;336.20;133.70;;;11.30;99.90;14.20;96031.00;;;;5001863;28;20202;-70
2024/02/25 11:00:36;;;;;;;340.40;142.67;;;11.40;99.90;14.00;96035.00;;;;5005827;28;20233;-70
2024/02/25 11:03:25;;;;;;;329.30;135.87;;;11.40;99.90;14.00;96034.00;;;;5006945;28;21230;-70
2024/02/25 11:06:30;;;;;;;320.87;130.80;;;11.30;99.90;14.20;96033.00;;;;5006264;28;20221;-70
2024/02/25 11:09:23;;;;;;;324.87;134.80;;;11.30;99.90;13.90;96006.00;;;;5007299;28;20217;-70
2024/02/25 11:12:21;;;;;;;327.43;135.37;;;11.20;99.90;13.70;96012.00;;;;5028516;22;20235;-86
2024/02/25 11:15:20;;;;;;;323.97;133.67;;;11.30;99.90;14.40;96008.00;;;;5038799;28;20617;-85
2024/02/25 11:18:09;;;;;;;322.23;132.33;;;11.40;99.90;14.80;96000.00;;;;5042490;28;20217;-87
2024/02/25 11:21:05;;;;;;;336.13;137.70;;;11.60;99.90;14.80;96003.00;;;;5027358;28;20212;-86
2024/02/25 11:23:54;;;;;;;342.50;143.73;;;11.80;99.90;15.40;96001.00;;;;5029357;28;20205;-86
2024/02/25 11:26:45;;;;;;;347.07;148.03;;;12.20;99.90;15.80;95996.00;;;;5029275;28;20230;-88
2024/02/25 11:29:34;;;;;;;386.20;175.03;;;12.30;99.90;16.10;96001.00;;;;5017205;28;20212;-87
2024/02/25 11:32:34;;;;;;;361.63;160.07;;;12.70;99.90;16.30;96007.00;;;;5036525;22;20232;-71
2024/02/25 11:35:25;;;;;;;344.60;159.20;;;12.90;99.90;16.80;95994.00;;;;5021125;28;20233;-71
2024/02/25 11:38:14;;;;;;;351.40;166.43;;;13.20;99.90;16.40;95987.00;;;;5023783;28;20584;-72
2024/02/25 11:41:04;;;;;;;361.10;177.80;;;13.50;99.90;15.60;95983.00;;;;5016929;28;20209;-71
2024/02/25 11:43:56;;;;;;;450.43;258.47;;;13.40;98.40;15.30;95987.00;;;;5010503;28;20211;-72
2024/02/25 11:46:45;;;;;;;334.60;166.13;;;13.30;98.20;15.20;95979.00;;;;5018432;28;20262;-72
2024/02/25 11:49:37;;;;;;;364.50;183.93;;;13.10;98.50;17.00;95967.00;;;;5017957;28;20248;-72
2024/02/25 11:52:26;;;;;;;355.47;176.40;;;13.30;99.30;17.20;95982.00;;;;5020144;28;20559;-71
2024/02/25 11:55:16;;;;;;;347.23;174.47;;;13.80;99.30;15.00;95956.00;;;;5030443;28;20225;-71
2024/02/25 11:58:05;;;;;;;450.57;262.07;;;13.50;96.40;16.10;95951.00;;;;5018373;28;20209;-71
2024/02/25 12:00:55;;;;;;;358.30;183.87;;;13.50;97.30;17.50;95964.00;;;;5016420;28;20201;-72
2024/02/25 12:03:44;;;;;;;361.37;183.70;;;13.80;98.10;18.80;95951.00;;;;5027324;28;20710;-73
2024/02/25 12:06:35;;;;;;;388.27;212.73;;;;;19.80;95950.00;;;;5019757;28;20209;-71
2024/02/25 12:09:25;;;;;;;390.97;223.80;;;;;20.00;95948.00;;;;5016197;28;20641;-75
2024/02/25 12:12:15;;;;;;;420.43;264.07;;;;;19.80;95955.00;;;;5028877;28;21813;-72
2024/02/25 12:15:05;;;;;;;395.87;260.40;;;;;18.20;95943.00;;;;5025632;28;20224;-73
2024/02/25 12:17:56;;;;;;;396.73;257.53;;;;;17.80;95938.00;;;;5025064;28;20205;-72
2024/02/25 12:20:46;;;;;;;394.50;258.90;;;;;20.10;95940.00;;;;5016654;28;20221;-73